createdAt,value
2023-04-09T00:00:38.656Z,9.00
2023-04-09T00:06:36.956Z,9.00
2023-04-09T00:09:04.905Z,9.00
2023-04-09T00:11:36.351Z,9.10
2023-04-09T00:14:10.868Z,9.10
2023-04-09T00:16:41.472Z,9.00
2023-04-09T00:19:20.129Z,9.00
2023-04-09T00:21:48.339Z,8.90
2023-04-09T00:24:18.333Z,8.90
2023-04-09T00:26:46.382Z,8.90
2023-04-09T00:29:23.837Z,8.90
2023-04-09T00:31:52.258Z,8.90
2023-04-09T00:34:22.323Z,8.90
2023-04-09T00:40:21.385Z,8.90
2023-04-09T00:42:49.361Z,8.80
2023-04-09T00:45:21.533Z,8.80
2023-04-09T00:47:53.643Z,8.80
2023-04-09T00:50:23.845Z,8.80
2023-04-09T00:52:58.378Z,8.90
2023-04-09T00:55:26.757Z,8.90
2023-04-09T00:57:54.657Z,8.90
2023-04-09T01:00:24.057Z,8.90
2023-04-09T01:02:54.141Z,8.90
2023-04-09T01:05:25.437Z,8.90
2023-04-09T01:08:02.723Z,8.90
2023-04-09T01:10:40.574Z,8.90
2023-04-09T01:13:12.829Z,8.90
2023-04-09T01:15:48.292Z,8.90
2023-04-09T01:18:23.484Z,8.80
2023-04-09T01:20:59.058Z,8.90
2023-04-09T01:23:38.439Z,8.90
2023-04-09T01:26:12.047Z,8.90
2023-04-09T01:28:56.999Z,8.90
2023-04-09T01:31:38.341Z,8.90
2023-04-09T01:34:33.584Z,8.90
2023-04-09T01:37:04.605Z,8.90
2023-04-09T01:46:18.678Z,9.00
2023-04-09T01:52:11.653Z,8.90
2023-04-09T01:54:39.610Z,8.90
2023-04-09T02:00:52.728Z,9.00
2023-04-09T02:03:36.728Z,9.00
2023-04-09T02:06:10.525Z,9.00
2023-04-09T02:09:00.624Z,8.90
2023-04-09T02:15:26.224Z,8.90
2023-04-09T02:17:57.397Z,9.00
2023-04-09T02:20:31.913Z,9.00
2023-04-09T02:23:19.428Z,9.00
2023-04-09T02:26:04.339Z,9.00
2023-04-09T02:29:17.698Z,9.00
2023-04-09T02:37:31.787Z,9.00
2023-04-09T02:40:58.483Z,9.10
2023-04-09T02:43:30.620Z,9.10
2023-04-09T02:46:26.121Z,9.10
2023-04-09T02:52:18.848Z,9.20
2023-04-09T02:57:55.670Z,9.20
2023-04-09T03:03:48.993Z,9.10
2023-04-09T03:06:22.399Z,9.10
2023-04-09T03:09:03.442Z,9.10
2023-04-09T03:11:37.013Z,9.00
2023-04-09T03:14:12.729Z,9.00
2023-04-09T03:17:12.237Z,9.00
2023-04-09T03:19:43.724Z,9.10
2023-04-09T03:22:11.789Z,9.10
2023-04-09T03:27:23.062Z,9.00
2023-04-09T03:29:57.867Z,9.10
2023-04-09T03:35:26.396Z,9.00
2023-04-09T03:37:54.750Z,9.00
2023-04-09T03:40:25.559Z,9.00
2023-04-09T03:42:53.549Z,9.00
2023-04-09T03:46:04.232Z,9.00
2023-04-09T03:48:34.035Z,9.00
2023-04-09T03:51:23.849Z,9.00
2023-04-09T03:54:04.714Z,9.00
2023-04-09T03:56:59.147Z,9.00
2023-04-09T04:02:44.730Z,9.00
2023-04-09T04:09:53.834Z,9.10
2023-04-09T04:12:21.803Z,9.00
2023-04-09T04:14:59.355Z,9.00
2023-04-09T04:17:48.207Z,9.00
2023-04-09T04:20:38.190Z,9.00
2023-04-09T04:23:42.522Z,8.90
2023-04-09T04:26:13.117Z,8.90
2023-04-09T04:28:44.285Z,8.90
2023-04-09T04:31:13.687Z,9.00
2023-04-09T04:33:42.531Z,9.00
2023-04-09T04:39:43.407Z,9.00
2023-04-09T04:42:13.807Z,8.90
2023-04-09T04:44:51.233Z,8.90
2023-04-09T04:47:19.454Z,8.90
2023-04-09T04:49:56.830Z,8.90
2023-04-09T04:52:44.093Z,8.90
2023-04-09T04:55:31.780Z,8.90
2023-04-09T04:58:05.621Z,8.90
2023-04-09T05:00:37.644Z,8.90
2023-04-09T05:03:05.572Z,8.90
2023-04-09T05:05:41.771Z,8.90
2023-04-09T05:08:11.616Z,9.00
2023-04-09T05:10:44.965Z,9.00
2023-04-09T05:13:18.699Z,8.90
2023-04-09T05:16:12.046Z,9.00
2023-04-09T05:18:44.565Z,9.00
2023-04-09T05:21:14.558Z,9.00
2023-04-09T05:23:48.360Z,9.00
2023-04-09T05:26:26.752Z,9.00
2023-04-09T05:29:07.633Z,9.00
2023-04-09T05:31:36.420Z,8.90
2023-04-09T05:34:04.380Z,8.90
2023-04-09T05:36:32.776Z,8.90
2023-04-09T05:39:03.033Z,9.00
2023-04-09T05:41:32.741Z,9.00
2023-04-09T05:47:36.405Z,9.10
2023-04-09T05:56:17.425Z,9.10
2023-04-09T06:01:32.951Z,9.10
2023-04-09T06:04:29.005Z,9.10
2023-04-09T06:07:20.342Z,9.10
2023-04-09T06:10:04.577Z,9.10
2023-04-09T06:13:01.039Z,9.10
2023-04-09T06:15:47.074Z,9.10
2023-04-09T06:18:36.779Z,9.10
2023-04-09T06:21:42.398Z,9.10
2023-04-09T06:30:41.489Z,9.00
2023-04-09T06:43:44.700Z,9.00
2023-04-09T06:46:34.642Z,9.00
2023-04-09T06:49:11.901Z,9.00
2023-04-09T06:51:40.077Z,9.00
2023-04-09T06:54:11.794Z,9.00
2023-04-09T06:56:39.723Z,9.10
2023-04-09T06:59:07.609Z,9.10
2023-04-09T07:01:37.707Z,9.10
2023-04-09T07:04:06.002Z,9.10
2023-04-09T07:06:36.398Z,9.10
2023-04-09T07:09:19.388Z,9.00
2023-04-09T07:11:52.244Z,9.00
2023-04-09T07:14:20.130Z,9.00
2023-04-09T07:16:48.318Z,9.00
2023-04-09T07:19:16.307Z,9.00
2023-04-09T07:21:45.404Z,9.00
2023-04-09T07:24:15.919Z,9.00
2023-04-09T07:26:44.101Z,9.00
2023-04-09T07:29:13.451Z,9.00
2023-04-09T07:31:44.617Z,9.00
2023-04-09T07:34:14.816Z,9.00
2023-04-09T07:36:43.661Z,9.10
2023-04-09T07:39:11.618Z,9.20
2023-04-09T07:42:02.626Z,9.20
2023-04-09T07:44:34.970Z,9.20
2023-04-09T07:47:09.999Z,9.30
2023-04-09T07:49:38.959Z,9.30
2023-04-09T07:52:09.450Z,9.30
2023-04-09T07:54:39.986Z,9.30
2023-04-09T07:57:31.512Z,9.30
2023-04-09T08:00:24.645Z,9.30
2023-04-09T08:02:53.162Z,9.40
2023-04-09T08:05:24.700Z,9.40
2023-04-09T08:08:00.799Z,9.50
2023-04-09T08:10:29.340Z,9.50
2023-04-09T08:12:57.298Z,9.50
2023-04-09T08:15:30.253Z,9.60
2023-04-09T08:18:00.744Z,9.60
2023-04-09T08:20:29.339Z,9.60
2023-04-09T08:22:57.654Z,9.70
2023-04-09T08:25:25.690Z,9.70
2023-04-09T08:27:56.020Z,9.70
2023-04-09T08:30:28.584Z,9.80
2023-04-09T08:35:38.164Z,9.80
2023-04-09T08:38:06.016Z,9.90
2023-04-09T08:40:36.791Z,9.90
2023-04-09T08:43:07.283Z,10.00
2023-04-09T08:45:35.341Z,10.10
2023-04-09T08:48:04.554Z,10.20
2023-04-09T08:50:34.681Z,10.30
2023-04-09T08:53:06.933Z,10.30
2023-04-09T08:55:35.561Z,10.40
2023-04-09T08:58:07.362Z,10.40
2023-04-09T09:00:35.802Z,10.40
2023-04-09T09:03:05.908Z,10.50
2023-04-09T09:05:39.996Z,10.60
2023-04-09T09:08:09.725Z,10.70
2023-04-09T09:10:39.671Z,10.70
2023-04-09T09:13:23.382Z,10.70
2023-04-09T09:15:56.930Z,10.70
2023-04-09T09:18:42.493Z,10.80
2023-04-09T09:21:19.561Z,10.90
2023-04-09T09:23:52.960Z,11.00
2023-04-09T09:26:28.893Z,11.00
2023-04-09T09:28:58.854Z,11.10
2023-04-09T09:31:27.568Z,11.10
2023-04-09T09:34:01.678Z,11.00
2023-04-09T09:36:39.682Z,11.00
2023-04-09T09:39:15.953Z,11.00
2023-04-09T09:41:49.965Z,11.00
2023-04-09T09:44:37.483Z,11.00
2023-04-09T09:47:07.484Z,11.10
2023-04-09T09:49:37.749Z,11.30
2023-04-09T09:52:17.185Z,11.30
2023-04-09T09:54:52.230Z,11.30
2023-04-09T09:57:26.578Z,11.40
2023-04-09T10:00:02.087Z,11.50
2023-04-09T10:02:38.384Z,11.50
2023-04-09T10:05:26.092Z,11.50
2023-04-09T10:12:14.923Z,11.70
2023-04-09T10:15:46.686Z,11.90
2023-04-09T10:18:15.678Z,12.00
2023-04-09T10:20:54.945Z,12.00
2023-04-09T10:26:36.832Z,12.00
2023-04-09T10:29:35.941Z,12.00
2023-04-09T10:32:11.885Z,12.10
2023-04-09T10:34:45.229Z,12.20
2023-04-09T10:37:18.931Z,12.30
2023-04-09T10:39:52.110Z,12.40
2023-04-09T10:42:25.925Z,12.40
2023-04-09T10:45:10.153Z,12.50
2023-04-09T10:47:39.395Z,12.60
2023-04-09T10:50:46.315Z,12.60
2023-04-09T10:53:26.010Z,12.70
2023-04-09T10:56:02.089Z,12.80
2023-04-09T10:58:32.372Z,12.90
2023-04-09T11:01:21.009Z,13.10
2023-04-09T11:04:16.662Z,13.20
2023-04-09T11:06:51.790Z,13.30
2023-04-09T11:09:23.005Z,13.30
2023-04-09T11:11:54.759Z,13.30
2023-04-09T11:14:38.572Z,13.30
2023-04-09T11:20:07.963Z,13.40
2023-04-09T11:22:40.677Z,13.40
2023-04-09T11:25:11.188Z,13.40
2023-04-09T11:27:50.556Z,13.40
2023-04-09T11:30:21.851Z,13.40
2023-04-09T11:33:28.863Z,13.40
2023-04-09T11:36:20.594Z,13.40
2023-04-09T11:42:52.303Z,13.40
2023-04-09T11:45:21.635Z,13.40
2023-04-09T11:48:27.344Z,13.50
2023-04-09T11:50:55.363Z,13.50
2023-04-09T11:53:41.097Z,13.60
2023-04-09T11:59:43.853Z,13.70
2023-04-09T12:16:43.816Z,14.00
2023-04-09T12:20:15.490Z,13.90
2023-04-09T12:33:24.175Z,13.70
2023-04-09T12:35:52.253Z,13.80
2023-04-09T12:38:20.525Z,13.90
2023-04-09T12:40:52.831Z,14.00
2023-04-09T12:43:29.132Z,14.10
2023-04-09T12:45:58.476Z,14.20
2023-04-09T12:48:27.804Z,14.30
2023-04-09T12:50:57.911Z,14.40
2023-04-09T12:53:25.912Z,14.40
2023-04-09T12:56:21.004Z,14.50
2023-04-09T12:58:48.967Z,14.50
2023-04-09T13:01:17.280Z,14.50
2023-04-09T13:04:05.776Z,14.50
2023-04-09T13:06:35.790Z,14.50
2023-04-09T13:09:22.660Z,14.50
2023-04-09T13:11:56.958Z,14.40
2023-04-09T13:14:30.211Z,14.40
2023-04-09T13:17:09.278Z,14.50
2023-04-09T13:20:06.900Z,14.50
2023-04-09T13:22:39.647Z,14.50
2023-04-09T13:25:07.899Z,14.50
2023-04-09T13:27:35.798Z,14.60
2023-04-09T13:30:03.855Z,14.60
2023-04-09T13:32:46.279Z,14.80
2023-04-09T13:35:15.775Z,14.90
2023-04-09T13:38:14.547Z,14.90
2023-04-09T13:40:42.379Z,14.90
2023-04-09T13:43:46.727Z,14.90
2023-04-09T13:46:22.398Z,14.90
2023-04-09T13:52:00.858Z,14.70
2023-04-09T13:54:28.777Z,14.70
2023-04-09T13:56:58.136Z,14.80
2023-04-09T13:59:38.908Z,15.00
2023-04-09T14:02:10.308Z,15.00
2023-04-09T14:04:38.454Z,15.20
2023-04-09T14:07:15.253Z,15.20
2023-04-09T14:09:44.122Z,15.20
2023-04-09T14:12:34.268Z,15.20
2023-04-09T14:15:06.408Z,15.20
2023-04-09T14:17:34.880Z,15.30
2023-04-09T14:20:03.875Z,15.40
2023-04-09T14:22:33.224Z,15.40
2023-04-09T14:25:02.387Z,15.40
2023-04-09T14:27:30.804Z,15.40
2023-04-09T14:29:58.689Z,15.40
2023-04-09T14:32:26.682Z,15.40
2023-04-09T14:34:56.763Z,15.50
2023-04-09T14:37:25.525Z,15.50
2023-04-09T14:39:54.797Z,15.50
2023-04-09T14:45:44.173Z,15.70
2023-04-09T14:48:19.567Z,15.80
2023-04-09T14:51:40.424Z,15.90
2023-04-09T14:54:59.459Z,16.00
2023-04-09T14:57:28.641Z,16.10
2023-04-09T15:00:03.502Z,16.10
2023-04-09T15:02:38.653Z,16.10
2023-04-09T15:05:07.406Z,16.10
2023-04-09T15:07:37.821Z,16.00
2023-04-09T15:10:07.504Z,16.10
2023-04-09T15:12:40.226Z,16.40
2023-04-09T15:15:13.974Z,16.50
2023-04-09T15:17:41.981Z,16.40
2023-04-09T15:20:10.461Z,16.20
2023-04-09T15:26:22.246Z,16.30
2023-04-09T15:28:53.495Z,17.00
2023-04-09T15:31:21.699Z,17.30
2023-04-09T15:33:50.306Z,17.30
2023-04-09T15:39:04.644Z,16.70
2023-04-09T15:41:36.516Z,16.30
2023-04-09T15:44:05.749Z,16.10
2023-04-09T15:46:34.928Z,16.00
2023-04-09T15:49:04.123Z,16.00
2023-04-09T15:52:12.222Z,15.90
2023-04-09T15:54:45.327Z,15.90
2023-04-09T15:57:14.313Z,15.70
2023-04-09T15:59:45.728Z,15.60
2023-04-09T16:02:13.594Z,15.50
2023-04-09T16:04:48.430Z,15.50
2023-04-09T16:07:17.586Z,15.40
2023-04-09T16:09:46.081Z,15.40
2023-04-09T16:12:24.730Z,15.40
2023-04-09T16:14:55.024Z,15.40
2023-04-09T16:17:40.280Z,15.40
2023-04-09T16:20:14.337Z,15.40
2023-04-09T16:22:42.271Z,15.40
2023-04-09T16:25:11.157Z,15.40
2023-04-09T16:27:41.465Z,15.40
2023-04-09T16:30:14.351Z,15.40
2023-04-09T16:32:47.714Z,15.40
2023-04-09T16:35:23.180Z,15.30
2023-04-09T16:38:03.237Z,15.30
2023-04-09T16:40:31.069Z,15.20
2023-04-09T16:42:58.976Z,15.20
2023-04-09T16:45:35.987Z,15.20
2023-04-09T16:48:12.021Z,15.10
2023-04-09T16:50:42.496Z,15.10
2023-04-09T16:53:10.482Z,15.10
2023-04-09T16:58:37.207Z,15.00
2023-04-09T17:01:09.473Z,14.90
2023-04-09T17:03:37.676Z,14.90
2023-04-09T17:06:12.767Z,14.90
2023-04-09T17:08:41.329Z,14.90
2023-04-09T17:11:31.464Z,14.80
2023-04-09T17:14:01.040Z,14.80
2023-04-09T17:16:33.176Z,14.70
2023-04-09T17:19:05.263Z,14.60
2023-04-09T17:21:34.299Z,14.60
2023-04-09T17:24:04.358Z,14.60
2023-04-09T17:26:35.399Z,14.50
2023-04-09T17:29:05.557Z,14.50
2023-04-09T17:31:39.355Z,14.50
2023-04-09T17:34:09.609Z,14.40
2023-04-09T17:36:37.648Z,14.40
2023-04-09T17:39:14.007Z,14.30
2023-04-09T17:41:42.498Z,14.30
2023-04-09T17:44:10.358Z,14.30
2023-04-09T17:46:40.922Z,14.30
2023-04-09T17:49:11.621Z,14.20
2023-04-09T17:51:42.953Z,14.20
2023-04-09T17:54:14.775Z,14.20
2023-04-09T17:56:44.401Z,14.10
2023-04-09T17:59:12.346Z,14.10
2023-04-09T18:01:44.122Z,14.00
2023-04-09T18:04:12.109Z,13.90
2023-04-09T18:06:40.934Z,13.90
2023-04-09T18:09:11.188Z,13.80
2023-04-09T18:11:39.338Z,13.70
2023-04-09T18:14:08.061Z,13.70
2023-04-09T18:16:47.204Z,13.60
2023-04-09T18:19:18.611Z,13.60
2023-04-09T18:21:48.980Z,13.50
2023-04-09T18:24:23.567Z,13.50
2023-04-09T18:26:51.763Z,13.40
2023-04-09T18:29:19.585Z,13.40
2023-04-09T18:34:29.010Z,13.30
2023-04-09T18:36:59.656Z,13.20
2023-04-09T18:39:28.087Z,13.10
2023-04-09T18:42:00.036Z,13.10
2023-04-09T18:44:28.139Z,13.10
2023-04-09T18:46:56.220Z,13.00
2023-04-09T18:49:26.243Z,13.00
2023-04-09T18:52:03.961Z,12.90
2023-04-09T18:54:34.916Z,12.90
2023-04-09T18:57:06.153Z,12.80
2023-04-09T18:59:42.102Z,12.80
2023-04-09T19:02:33.851Z,12.70
2023-04-09T19:05:03.351Z,12.70
2023-04-09T19:07:33.592Z,12.70
2023-04-09T19:10:01.448Z,12.70
2023-04-09T19:12:29.622Z,12.60
2023-04-09T19:15:00.182Z,12.60
2023-04-09T19:17:33.012Z,12.60
2023-04-09T19:20:01.032Z,12.60
2023-04-09T19:22:29.823Z,12.50
2023-04-09T19:25:00.406Z,12.50
2023-04-09T19:27:40.712Z,12.50
2023-04-09T19:30:20.475Z,12.40
2023-04-09T19:32:54.447Z,12.40
2023-04-09T19:35:23.659Z,12.30
2023-04-09T19:37:53.920Z,12.20
2023-04-09T19:40:23.231Z,12.20
2023-04-09T19:42:59.423Z,12.20
2023-04-09T19:45:30.431Z,12.20
2023-04-09T19:48:00.444Z,12.10
2023-04-09T19:50:31.391Z,12.10
2023-04-09T19:53:02.161Z,12.10
2023-04-09T19:55:31.523Z,12.10
2023-04-09T19:57:59.512Z,12.10
2023-04-09T20:00:28.139Z,12.10
2023-04-09T20:02:57.067Z,12.00
2023-04-09T20:05:25.368Z,11.90
2023-04-09T20:07:53.624Z,11.90
2023-04-09T20:10:21.631Z,11.90
2023-04-09T20:12:53.525Z,11.80
2023-04-09T20:15:21.564Z,11.80
2023-04-09T20:17:50.577Z,11.80
2023-04-09T20:20:19.994Z,11.80
2023-04-09T20:22:56.270Z,11.80
2023-04-09T20:25:24.925Z,11.80
2023-04-09T20:27:55.856Z,11.80
2023-04-09T20:30:23.778Z,11.80
2023-04-09T20:32:51.859Z,11.80
2023-04-09T20:35:19.891Z,11.80
2023-04-09T20:37:49.113Z,11.70
2023-04-09T20:40:17.615Z,11.70
2023-04-09T20:42:45.533Z,11.60
2023-04-09T20:45:14.857Z,11.60
2023-04-09T20:47:42.851Z,11.50
2023-04-09T20:50:11.617Z,11.50
2023-04-09T20:52:39.550Z,11.50
2023-04-09T20:55:08.093Z,11.50
2023-04-09T20:57:36.080Z,11.40
2023-04-09T21:00:04.174Z,11.40
2023-04-09T21:02:33.607Z,11.40
2023-04-09T21:05:08.518Z,11.40
2023-04-09T21:07:43.698Z,11.30
2023-04-09T21:10:12.231Z,11.30
2023-04-09T21:12:41.339Z,11.30
2023-04-09T21:15:10.327Z,11.30
2023-04-09T21:17:39.621Z,11.30
2023-04-09T21:20:08.692Z,11.30
2023-04-09T21:22:36.684Z,11.20
2023-04-09T21:25:04.827Z,11.20
2023-04-09T21:27:32.681Z,11.20
2023-04-09T21:30:00.571Z,11.20
2023-04-09T21:32:28.668Z,11.20
2023-04-09T21:34:58.180Z,11.20
2023-04-09T21:37:33.723Z,11.30
2023-04-09T21:40:01.630Z,11.30
2023-04-09T21:42:33.957Z,11.30
2023-04-09T21:45:02.288Z,11.40
2023-04-09T21:47:30.601Z,11.40
2023-04-09T21:50:00.005Z,11.50
2023-04-09T21:52:28.124Z,11.50
2023-04-09T21:54:56.066Z,11.50
2023-04-09T21:57:23.949Z,11.50
2023-04-09T21:59:51.865Z,11.50
2023-04-09T22:02:19.931Z,11.50
2023-04-09T22:04:48.128Z,11.50
2023-04-09T22:07:17.489Z,11.50
2023-04-09T22:09:45.452Z,11.50
2023-04-09T22:12:13.397Z,11.50
2023-04-09T22:14:41.999Z,11.40
2023-04-09T22:17:10.321Z,11.50
2023-04-09T22:19:40.510Z,11.40
2023-04-09T22:22:08.977Z,11.40
2023-04-09T22:24:39.297Z,11.40
2023-04-09T22:27:07.217Z,11.30
2023-04-09T22:29:37.835Z,11.20
2023-04-09T22:32:06.029Z,11.20
2023-04-09T22:34:33.989Z,11.20
2023-04-09T22:37:02.165Z,11.10
2023-04-09T22:39:30.227Z,11.20
2023-04-09T22:41:59.576Z,11.20
2023-04-09T22:44:27.486Z,11.10
2023-04-09T22:46:55.521Z,11.10
2023-04-09T22:49:24.188Z,11.10
2023-04-09T22:51:52.073Z,11.10
2023-04-09T22:54:19.941Z,11.10
2023-04-09T22:56:48.538Z,11.10
2023-04-09T22:59:19.957Z,11.00
2023-04-09T23:01:49.410Z,11.00
2023-04-09T23:04:17.957Z,11.00
2023-04-09T23:06:45.910Z,11.00
2023-04-09T23:09:13.810Z,11.00
2023-04-09T23:11:41.657Z,11.00
2023-04-09T23:14:09.578Z,10.90
2023-04-09T23:16:38.934Z,10.90
2023-04-09T23:19:06.889Z,10.90
2023-04-09T23:21:34.814Z,10.90
2023-04-09T23:24:02.795Z,10.80
2023-04-09T23:26:30.800Z,10.80
2023-04-09T23:28:58.734Z,10.80
2023-04-09T23:31:27.191Z,10.80
2023-04-09T23:33:56.608Z,10.80
2023-04-09T23:36:24.899Z,10.80
2023-04-09T23:38:52.803Z,10.80
2023-04-09T23:41:20.942Z,10.70
2023-04-09T23:43:49.058Z,10.70
2023-04-09T23:46:16.922Z,10.60
2023-04-09T23:48:44.833Z,10.60
2023-04-09T23:51:19.302Z,10.50
2023-04-09T23:53:47.328Z,10.50
2023-04-09T23:56:16.085Z,10.50
2023-04-09T23:58:44.021Z,10.40
